Time;durP1;ratioP1;P1;durP2;ratioP2;P2;SDS_P1;SDS_P2;PMS_P1;PMS_P2;Temp;Humidity;BMP_temperature;BMP_pressure;BME280_temperature;BME280_humidity;BME280_pressure;Samples;Min_cycle;Max_cycle;Signal;HPM_P1;HPM_P2
2023/04/12 00:02:23;;;;;;;;;;;;;;;25.57;42.35;95856.08;621232;227;65068;-60
2023/04/12 00:04:54;;;;;;;;;;;;;;;25.55;41.46;95854.84;619327;229;64539;-60
2023/04/12 00:07:21;;;;;;;;;;;;;;;25.54;41.88;95853.27;618879;229;64991;-60
2023/04/12 00:09:49;;;;;;;;;;;;;;;25.54;41.45;95853.27;617925;227;67206;-60
2023/04/12 00:12:19;;;;;;;;;;;;;;;25.54;40.89;95855.96;619899;228;67365;-62
2023/04/12 00:14:47;;;;;;;;;;;;;;;25.52;41.41;95858.19;619577;227;63581;-62
2023/04/12 00:17:14;;;;;;;;;;;;;;;25.50;39.72;95858.50;619218;229;67228;-61
2023/04/12 00:19:43;;;;;;;;;;;;;;;25.49;39.21;95854.25;618752;229;67064;-60
2023/04/12 00:22:11;;;;;;;;;;;;;;;25.50;41.61;95841.58;619885;227;62792;-61
2023/04/12 00:24:39;;;;;;;;;;;;;;;25.48;40.62;95839.20;620709;227;65057;-61
2023/04/12 00:27:07;;;;;;;;;;;;;;;25.48;39.31;95844.59;617589;228;66996;-61
2023/04/12 00:29:36;;;;;;;;;;;;;;;25.47;41.49;95841.11;613976;228;63033;-61
2023/04/12 00:32:04;;;;;;;;;;;;;;;25.47;41.86;95840.33;619245;228;66584;-61
2023/04/12 00:34:32;;;;;;;;;;;;;;;25.46;39.74;95839.55;617587;229;67206;-61
2023/04/12 00:37:00;;;;;;;;;;;;;;;25.44;42.17;95841.77;619240;227;64949;-61
2023/04/12 00:39:28;;;;;;;;;;;;;;;25.44;41.24;95839.08;620158;228;67526;-61
2023/04/12 00:41:57;;;;;;;;;;;;;;;25.42;39.62;95832.45;618543;229;67471;-62
2023/04/12 00:44:24;;;;;;;;;;;;;;;25.42;39.23;95835.92;618410;228;64854;-61
2023/04/12 00:46:54;;;;;;;;;;;;;;;25.41;41.67;95828.98;619325;229;49999;-61
2023/04/12 00:49:21;;;;;;;;;;;;;;;25.41;42.13;95831.67;619210;229;64728;-61
2023/04/12 00:51:50;;;;;;;;;;;;;;;25.40;41.45;95819.35;619289;229;65149;-61
2023/04/12 00:54:19;;;;;;;;;;;;;;;25.39;42.67;95820.45;619285;229;67273;-61
2023/04/12 00:56:46;;;;;;;;;;;;;;;25.38;40.77;95821.58;620121;228;65048;-62
2023/04/12 00:59:14;;;;;;;;;;;;;;;25.38;40.69;95818.89;619318;228;62729;-62
2023/04/12 01:01:41;;;;;;;;;;;;;;;25.36;41.00;95826.48;617334;229;67123;-62
2023/04/12 01:04:12;;;;;;;;;;;;;;;25.36;41.61;95823.02;618664;227;66747;-62
2023/04/12 01:06:56;;;;;;;;;;;;;;;25.35;40.45;95819.55;619168;229;62739;-61
2023/04/12 01:09:37;;;;;;;;;;;;;;;25.35;39.57;95821.45;619223;229;68255;-61
2023/04/12 01:12:15;;;;;;;;;;;;;;;25.34;40.54;95822.55;619160;229;66962;-61
2023/04/12 01:15:02;;;;;;;;;;;;;;;25.33;41.31;95811.01;602091;229;66150;-62
2023/04/12 01:17:36;;;;;;;;;;;;;;;25.33;43.82;95812.92;608811;230;64949;-61
2023/04/12 01:20:12;;;;;;;;;;;;;;;25.30;40.99;95808.98;614777;229;66888;-61
2023/04/12 01:22:52;;;;;;;;;;;;;;;25.29;41.82;95810.11;617820;227;65878;-60
2023/04/12 01:25:39;;;;;;;;;;;;;;;25.28;41.52;95800.45;619246;228;67039;-61
2023/04/12 01:28:11;;;;;;;;;;;;;;;25.28;41.84;95808.52;619294;228;67380;-61
2023/04/12 01:30:41;;;;;;;;;;;;;;;25.27;41.20;95804.27;619301;229;65610;-61
2023/04/12 01:33:10;;;;;;;;;;;;;;;25.27;41.40;95812.33;620209;228;64996;-61
2023/04/12 01:35:39;;;;;;;;;;;;;;;25.26;41.97;95805.36;619283;229;67067;-61
2023/04/12 01:38:07;;;;;;;;;;;;;;;25.25;40.38;95806.48;613189;229;69489;-61
2023/04/12 01:40:39;;;;;;;;;;;;;;;25.24;41.12;95812.98;619288;227;45423;-61
2023/04/12 01:43:10;;;;;;;;;;;;;;;25.23;41.15;95816.77;619485;228;67770;-59
2023/04/12 01:45:38;;;;;;;;;;;;;;;25.24;42.59;95813.77;619330;229;65704;-59
2023/04/12 01:48:07;;;;;;;;;;;;;;;25.22;40.85;95817.89;618460;228;67785;-59
2023/04/12 01:50:55;;;;;;;;;;;;;;;25.21;41.26;95814.42;618567;228;67059;-59
2023/04/12 01:53:24;;;;;;;;;;;;;;;25.21;42.38;95821.71;620034;228;62913;-59
2023/04/12 01:55:53;;;;;;;;;;;;;;;25.20;40.81;95817.42;617991;228;68062;-59
2023/04/12 01:58:22;;;;;;;;;;;;;;;25.19;42.10;95815.86;619311;229;66969;-60
2023/04/12 02:00:50;;;;;;;;;;;;;;;25.17;40.74;95823.46;620185;228;62669;-60
2023/04/12 02:03:20;;;;;;;;;;;;;;;25.17;41.68;95820.77;619336;228;67592;-60
2023/04/12 02:05:49;;;;;;;;;;;;;;;25.16;41.45;95819.21;619300;229;67207;-60
2023/04/12 02:08:18;;;;;;;;;;;;;;;25.15;40.45;95818.40;618351;229;41794;-60
2023/04/12 02:10:46;;;;;;;;;;;;;;;25.16;43.71;95811.93;619592;228;64967;-60
2023/04/12 02:13:16;;;;;;;;;;;;;;;25.14;40.52;95811.43;619336;228;45853;-60
2023/04/12 02:15:44;;;;;;;;;;;;;;;25.14;41.77;95824.09;618758;229;62934;-60
2023/04/12 02:18:12;;;;;;;;;;;;;;;25.14;42.40;95818.72;617488;229;64900;-60
2023/04/12 02:20:40;;;;;;;;;;;;;;;25.14;43.54;95816.02;619083;227;65754;-60
2023/04/12 02:23:08;;;;;;;;;;;;;;;25.13;42.58;95820.62;619292;227;62981;-60
2023/04/12 02:25:38;;;;;;;;;;;;;;;25.12;40.41;95810.18;613104;229;67611;-60
2023/04/12 02:28:05;;;;;;;;;;;;;;;25.11;42.67;95814.77;618133;228;65022;-62
2023/04/12 02:30:33;;;;;;;;;;;;;;;25.11;41.88;95813.99;618007;229;62545;-62
2023/04/12 02:33:01;;;;;;;;;;;;;;;25.11;41.52;95824.75;618985;228;68046;-62
2023/04/12 02:35:31;;;;;;;;;;;;;;;25.10;43.73;95818.59;619476;228;46834;-62
2023/04/12 02:38:00;;;;;;;;;;;;;;;25.09;41.31;95818.90;620563;227;43057;-62
2023/04/12 02:40:29;;;;;;;;;;;;;;;25.09;42.09;95816.21;619864;228;66971;-62
2023/04/12 02:42:57;;;;;;;;;;;;;;;25.08;43.59;95809.27;619288;229;65262;-62
2023/04/12 02:45:26;;;;;;;;;;;;;;;25.07;42.29;95804.98;617613;227;65708;-62
2023/04/12 02:47:53;;;;;;;;;;;;;;;25.06;42.37;95801.52;619762;227;64559;-62
2023/04/12 02:50:23;;;;;;;;;;;;;;;25.06;42.42;95801.52;619768;228;45787;-62
2023/04/12 02:52:52;;;;;;;;;;;;;;;25.05;43.31;95799.17;617690;229;46908;-62
2023/04/12 02:55:20;;;;;;;;;;;;;;;25.04;42.68;95798.36;620177;228;64944;-62
2023/04/12 02:57:49;;;;;;;;;;;;;;;25.03;42.36;95805.65;619303;229;67018;-62
2023/04/12 03:00:19;;;;;;;;;;;;;;;25.03;43.69;95805.65;619332;229;62967;-60
2023/04/12 03:02:51;;;;;;;;;;;;;;;25.01;43.45;95810.55;618006;228;42996;-60
2023/04/12 03:05:20;;;;;;;;;;;;;;;25.00;40.52;95803.61;620022;228;44857;-60
2023/04/12 03:07:48;;;;;;;;;;;;;;;24.99;41.81;95802.05;619248;229;65066;-60
2023/04/12 03:10:17;;;;;;;;;;;;;;;25.00;41.79;95800.14;618311;228;44419;-60
2023/04/12 03:12:46;;;;;;;;;;;;;;;24.98;42.79;95800.45;618657;228;45728;-60
2023/04/12 03:15:16;;;;;;;;;;;;;;;24.99;43.64;95790.48;619338;228;65666;-60
2023/04/12 03:17:45;;;;;;;;;;;;;;;24.97;43.31;95801.58;620165;227;46035;-60
2023/04/12 03:20:13;;;;;;;;;;;;;;;24.96;43.01;95809.95;618731;228;67496;-60
2023/04/12 03:22:42;;;;;;;;;;;;;;;24.95;42.38;95793.05;619612;228;42180;-60
2023/04/12 03:25:11;;;;;;;;;;;;;;;24.95;41.18;95798.42;618477;227;66891;-60
2023/04/12 03:27:40;;;;;;;;;;;;;;;24.95;41.51;95803.80;619259;229;44029;-60
2023/04/12 03:30:10;;;;;;;;;;;;;;;24.94;42.13;95798.77;618376;229;65142;-60
2023/04/12 03:32:41;;;;;;;;;;;;;;;24.93;42.44;95799.86;614004;227;68468;-60
2023/04/12 03:35:10;;;;;;;;;;;;;;;24.92;44.17;95814.42;619943;228;64288;-60
2023/04/12 03:37:40;;;;;;;;;;;;;;;24.91;40.44;95810.14;620297;228;64747;-60
2023/04/12 03:40:09;;;;;;;;;;;;;;;24.91;41.94;95810.14;618452;228;67341;-60
2023/04/12 03:42:40;;;;;;;;;;;;;;;24.91;42.57;95815.52;614489;227;67873;-60
2023/04/12 03:45:14;;;;;;;;;;;;;;;24.90;43.52;95813.95;619744;227;65689;-59
2023/04/12 03:47:44;;;;;;;;;;;;;;;24.89;41.43;95812.39;617871;228;43532;-60
2023/04/12 03:50:11;;;;;;;;;;;;;;;24.89;41.84;95834.67;618348;229;65435;-60
2023/04/12 03:52:40;;;;;;;;;;;;;;;24.87;42.75;95823.45;618099;228;42361;-60
2023/04/12 03:55:08;;;;;;;;;;;;;;;24.86;42.53;95826.48;620214;228;65103;-61
2023/04/12 03:57:36;;;;;;;;;;;;;;;24.84;40.99;95816.04;608824;230;65001;-62
2023/04/12 04:00:07;;;;;;;;;;;;;;;24.85;41.28;95825.66;614403;228;64974;-62
2023/04/12 04:02:37;;;;;;;;;;;;;;;24.84;42.16;95840.22;619259;227;46614;-63
2023/04/12 04:05:05;;;;;;;;;;;;;;;24.83;41.70;95821.73;619532;228;64532;-62
2023/04/12 04:07:33;;;;;;;;;;;;;;;24.83;44.09;95830.59;609116;231;65033;-62
2023/04/12 04:10:00;;;;;;;;;;;;;;;24.81;43.65;95820.16;616184;228;65213;-62
2023/04/12 04:12:29;;;;;;;;;;;;;;;24.81;42.10;95832.81;619883;228;48339;-62
2023/04/12 04:14:57;;;;;;;;;;;;;;;24.80;41.82;95836.62;619531;228;65665;-63
2023/04/12 04:17:26;;;;;;;;;;;;;;;24.79;43.87;95835.03;617888;227;43921;-64
2023/04/12 04:19:55;;;;;;;;;;;;;;;24.79;42.87;95837.72;622515;226;67757;-63
2023/04/12 04:22:23;;;;;;;;;;;;;;;24.79;43.06;95829.66;620282;227;62581;-64
2023/04/12 04:24:51;;;;;;;;;;;;;;;24.78;41.26;95849.59;617718;228;68071;-63
2023/04/12 04:27:19;;;;;;;;;;;;;;;24.78;42.53;95841.52;619198;227;67074;-63
2023/04/12 04:29:49;;;;;;;;;;;;;;;24.77;42.54;95850.68;619244;227;66092;-62
2023/04/12 04:32:17;;;;;;;;;;;;;;;24.77;43.03;95847.99;619279;228;67683;-61
2023/04/12 04:34:45;;;;;;;;;;;;;;;24.76;43.08;95841.84;619264;229;64515;-61
2023/04/12 04:37:17;;;;;;;;;;;;;;;24.77;43.72;95858.73;620312;227;43297;-62
2023/04/12 04:39:45;;;;;;;;;;;;;;;24.76;42.91;95854.48;619347;228;67658;-61
2023/04/12 04:42:14;;;;;;;;;;;;;;;24.75;44.36;95859.08;618362;229;67721;-61
2023/04/12 04:44:43;;;;;;;;;;;;;;;24.75;42.24;95871.73;618224;227;42466;-61
2023/04/12 04:47:11;;;;;;;;;;;;;;;24.76;42.94;95867.92;619184;229;67403;-61
2023/04/12 04:49:40;;;;;;;;;;;;;;;24.75;44.50;95864.45;619842;227;67052;-61
2023/04/12 04:52:09;;;;;;;;;;;;;;;24.75;41.07;95872.52;618287;227;47061;-61
2023/04/12 04:54:36;;;;;;;;;;;;;;;24.75;43.42;95874.41;619797;228;66179;-61
2023/04/12 04:57:06;;;;;;;;;;;;;;;24.76;41.98;95875.98;617627;229;64937;-61
2023/04/12 04:59:35;;;;;;;;;;;;;;;24.77;43.23;95872.17;619365;228;63022;-61
2023/04/12 05:02:04;;;;;;;;;;;;;;;24.77;42.24;95872.17;618587;228;44216;-61
2023/04/12 05:04:31;;;;;;;;;;;;;;;24.77;42.54;95864.92;618687;228;67584;-63
2023/04/12 05:06:59;;;;;;;;;;;;;;;24.79;42.83;95862.68;617629;227;65028;-61
2023/04/12 05:09:27;;;;;;;;;;;;;;;24.78;43.42;95865.70;612566;227;68733;-62
2023/04/12 05:11:56;;;;;;;;;;;;;;;24.79;42.84;95864.59;618532;229;67811;-62
2023/04/12 05:14:24;;;;;;;;;;;;;;;24.79;40.34;95865.37;617485;229;65174;-62
2023/04/12 05:16:52;;;;;;;;;;;;;;;24.80;41.60;95875.02;619017;228;64511;-62
2023/04/12 05:19:19;;;;;;;;;;;;;;;24.80;41.70;95879.62;620208;227;67229;-62
2023/04/12 05:21:47;;;;;;;;;;;;;;;24.81;43.11;95884.65;618735;229;63592;-62
2023/04/12 05:24:15;;;;;;;;;;;;;;;24.82;43.12;95861.25;618180;228;67225;-62
2023/04/12 05:26:42;;;;;;;;;;;;;;;24.81;42.97;95865.84;619231;229;67501;-62
2023/04/12 05:29:11;;;;;;;;;;;;;;;24.82;42.31;95858.56;619227;229;42450;-62
2023/04/12 05:31:39;;;;;;;;;;;;;;;24.83;43.06;95859.34;619157;229;64289;-62
2023/04/12 05:34:08;;;;;;;;;;;;;;;24.84;40.67;95869.00;619161;229;45660;-62
2023/04/12 05:36:38;;;;;;;;;;;;;;;24.84;40.39;95872.47;619136;229;43854;-63
2023/04/12 05:39:05;;;;;;;;;;;;;;;24.85;43.44;95863.28;619256;229;67270;-62
2023/04/12 05:41:33;;;;;;;;;;;;;;;24.86;40.25;95867.56;619224;229;67050;-61
2023/04/12 05:44:02;;;;;;;;;;;;;;;24.86;43.31;95867.56;619655;228;65196;-61
2023/04/12 05:46:30;;;;;;;;;;;;;;;24.85;41.98;95860.59;618569;228;67732;-62
2023/04/12 05:48:58;;;;;;;;;;;;;;;24.85;38.19;95851.75;612878;228;67468;-62
2023/04/12 05:51:27;;;;;;;;;;;;;;;24.86;40.42;95851.44;611843;232;62983;-61
2023/04/12 05:53:55;;;;;;;;;;;;;;;24.88;42.33;95865.35;619800;227;67974;-62
2023/04/12 05:56:23;;;;;;;;;;;;;;;24.88;38.87;95868.04;618285;227;67608;-62
2023/04/12 05:58:51;;;;;;;;;;;;;;;24.91;38.91;95870.08;621385;227;63043;-62
2023/04/12 06:01:20;;;;;;;;;;;;;;;24.94;36.60;95874.02;617877;227;67366;-61
2023/04/12 06:03:48;;;;;;;;;;;;;;;24.95;38.27;95860.23;618618;228;64687;-62
2023/04/12 06:06:15;;;;;;;;;;;;;;;24.97;37.48;95866.09;619270;229;65814;-62
2023/04/12 06:08:43;;;;;;;;;;;;;;;25.00;37.90;95872.72;618144;228;67905;-61
2023/04/12 06:11:10;;;;;;;;;;;;;;;25.00;37.07;95876.19;620471;228;66911;-61
2023/04/12 06:13:38;;;;;;;;;;;;;;;25.03;37.55;95867.47;617067;229;62855;-61
2023/04/12 06:16:07;;;;;;;;;;;;;;;25.05;41.73;95859.09;616168;228;67909;-62
2023/04/12 06:18:37;;;;;;;;;;;;;;;25.07;41.51;95866.81;619108;229;66850;-62
2023/04/12 06:21:08;;;;;;;;;;;;;;;25.09;40.20;95853.84;619343;229;46841;-62
2023/04/12 06:23:36;;;;;;;;;;;;;;;25.11;40.81;95852.41;620899;228;67169;-62
2023/04/12 06:26:04;;;;;;;;;;;;;;;25.12;43.07;95842.44;620595;228;67421;-62
2023/04/12 06:28:33;;;;;;;;;;;;;;;25.14;40.80;95850.97;620140;228;44767;-62
2023/04/12 06:31:01;;;;;;;;;;;;;;;25.15;42.53;95855.25;618655;229;67248;-61
2023/04/12 06:33:30;;;;;;;;;;;;;;;25.14;43.94;95843.69;618643;229;44386;-62
2023/04/12 06:35:59;;;;;;;;;;;;;;;25.15;43.55;95858.72;619140;227;62968;-62
2023/04/12 06:38:26;;;;;;;;;;;;;;;25.19;43.96;95851.59;619208;228;67192;-62
2023/04/12 06:40:54;;;;;;;;;;;;;;;25.21;44.69;95859.35;619028;228;64937;-61
2023/04/12 06:43:21;;;;;;;;;;;;;;;25.22;44.24;95863.60;618784;228;65065;-61
2023/04/12 06:45:49;;;;;;;;;;;;;;;25.24;44.18;95856.01;618249;229;64646;-62
2023/04/12 06:48:16;;;;;;;;;;;;;;;25.24;45.48;95861.39;618311;229;67111;-62
2023/04/12 06:50:44;;;;;;;;;;;;;;;25.26;43.52;95851.06;618644;229;65025;-62
2023/04/12 06:53:15;;;;;;;;;;;;;;;25.28;43.97;95853.44;618308;229;67427;-61
2023/04/12 06:55:43;;;;;;;;;;;;;;;25.30;44.33;95862.76;619320;225;67075;-60
2023/04/12 06:58:10;;;;;;;;;;;;;;;25.30;42.75;95868.14;622974;224;63017;-61
2023/04/12 07:00:38;;;;;;;;;;;;;;;25.32;43.99;95863.23;629105;225;64888;-61
2023/04/12 07:03:09;;;;;;;;;;;;;;;25.34;44.50;95862.88;620667;226;67052;-60
2023/04/12 07:05:38;;;;;;;;;;;;;;;25.35;44.33;95872.55;622664;225;62962;-61
2023/04/12 07:08:08;;;;;;;;;;;;;;;25.36;44.15;95866.83;628661;225;67417;-62
2023/04/12 07:10:35;;;;;;;;;;;;;;;25.37;43.76;95865.73;628443;225;68937;-62
2023/04/12 07:13:06;;;;;;;;;;;;;;;25.41;45.39;95863.17;628472;225;65013;-63
2023/04/12 07:15:32;;;;;;;;;;;;;;;25.41;45.66;95858.56;629459;225;71408;-63
2023/04/12 07:18:00;;;;;;;;;;;;;;;25.42;44.13;95862.82;623548;225;65065;-61
2023/04/12 07:20:27;;;;;;;;;;;;;;;25.45;42.93;95866.76;607706;230;65080;-61
2023/04/12 07:22:54;;;;;;;;;;;;;;;25.45;44.26;95856.81;610350;231;67228;-61
2023/04/12 07:25:22;;;;;;;;;;;;;;;25.46;44.32;95853.00;610791;231;67143;-61
2023/04/12 07:27:49;;;;;;;;;;;;;;;25.47;42.29;95849.18;609803;232;65058;-61
2023/04/12 07:30:17;;;;;;;;;;;;;;;25.51;44.88;95861.97;610462;231;67226;-61
2023/04/12 07:32:44;;;;;;;;;;;;;;;25.51;44.99;95851.22;610480;231;64349;-61
2023/04/12 07:35:12;;;;;;;;;;;;;;;25.52;42.15;95863.56;609690;231;65166;-60
2023/04/12 07:37:39;;;;;;;;;;;;;;;25.54;41.58;95861.34;610260;232;66950;-61
2023/04/12 07:40:07;;;;;;;;;;;;;;;25.56;43.00;95875.23;609936;232;67187;-61
2023/04/12 07:42:35;;;;;;;;;;;;;;;25.56;44.27;95862.56;610371;231;65047;-62
2023/04/12 07:45:02;;;;;;;;;;;;;;;25.56;44.03;95867.16;609713;232;66926;-62
2023/04/12 07:47:31;;;;;;;;;;;;;;;25.56;44.52;95873.33;610236;231;67161;-62
2023/04/12 07:49:59;;;;;;;;;;;;;;;25.59;46.63;95869.19;613549;229;62786;-62
2023/04/12 07:52:26;;;;;;;;;;;;;;;25.59;44.50;95855.73;613689;230;64653;-62
2023/04/12 07:54:54;;;;;;;;;;;;;;;25.58;44.18;95860.34;611530;230;67114;-61
2023/04/12 07:57:22;;;;;;;;;;;;;;;25.59;44.47;95859.23;615229;230;65032;-61
2023/04/12 07:59:49;;;;;;;;;;;;;;;25.60;44.54;95862.71;618405;225;67024;-62
2023/04/12 08:02:26;;;;;;;;;;;;;;;25.61;43.41;95853.52;620165;225;67775;-62
2023/04/12 08:04:46;;;;;;;;;;;;;;;25.59;39.42;95853.86;617909;228;63004;-62
2023/04/12 08:07:14;;;;;;;;;;;;;;;25.61;41.99;95875.03;619832;228;66108;-62
2023/04/12 08:09:42;;;;;;;;;;;;;;;25.61;41.90;95864.28;618038;227;66897;-59
2023/04/12 08:12:10;;;;;;;;;;;;;;;25.62;43.16;95871.25;619191;229;62961;-59
2023/04/12 08:14:38;;;;;;;;;;;;;;;25.62;39.58;95857.80;619204;229;67226;-59
2023/04/12 08:17:05;;;;;;;;;;;;;;;25.63;41.97;95857.45;619180;229;67133;-59
2023/04/12 08:19:34;;;;;;;;;;;;;;;25.63;41.62;95845.91;609337;228;65116;-59
2023/04/12 08:22:01;;;;;;;;;;;;;;;25.62;43.15;95839.75;609103;232;67071;-59
2023/04/12 08:24:29;;;;;;;;;;;;;;;25.62;41.07;95839.75;608996;232;67139;-58
2023/04/12 08:26:57;;;;;;;;;;;;;;;25.64;39.99;95836.71;608336;232;62904;-58
2023/04/12 08:29:24;;;;;;;;;;;;;;;25.64;43.90;95826.73;609465;231;65191;-59
2023/04/12 08:31:55;;;;;;;;;;;;;;;25.64;42.66;95815.19;612120;231;67078;-59
2023/04/12 08:34:23;;;;;;;;;;;;;;;25.64;44.39;95823.26;613703;231;65087;-58
2023/04/12 08:36:51;;;;;;;;;;;;;;;25.62;42.01;95818.22;612289;231;67228;-59
2023/04/12 08:39:19;;;;;;;;;;;;;;;25.60;39.53;95815.07;613418;231;65039;-59
2023/04/12 08:41:47;;;;;;;;;;;;;;;25.64;41.17;95820.56;613794;228;64898;-59
2023/04/12 08:44:15;;;;;;;;;;;;;;;25.64;42.74;95820.56;613756;231;65123;-58
2023/04/12 08:46:42;;;;;;;;;;;;;;;25.64;39.71;95826.73;613785;231;66810;-59
2023/04/12 08:49:10;;;;;;;;;;;;;;;25.65;43.07;95820.25;611104;231;63031;-59
2023/04/12 08:51:38;;;;;;;;;;;;;;;25.66;41.13;95824.50;613279;231;67299;-58
2023/04/12 08:54:06;;;;;;;;;;;;;;;25.66;42.67;95813.74;613722;231;67465;-58
2023/04/12 08:56:33;;;;;;;;;;;;;;;25.67;43.99;95825.28;612772;231;65033;-59
2023/04/12 08:59:01;;;;;;;;;;;;;;;25.66;42.82;95829.10;612980;228;67222;-59
2023/04/12 09:01:29;;;;;;;;;;;;;;;25.66;44.12;95802.98;613787;231;64846;-59
2023/04/12 09:03:56;;;;;;;;;;;;;;;25.65;44.58;95822.94;611987;231;65155;-58
2023/04/12 09:06:24;;;;;;;;;;;;;;;25.66;42.62;95847.94;611452;231;67115;-59
2023/04/12 09:08:53;;;;;;;;;;;;;;;25.66;43.41;95821.81;612479;231;67117;-59
2023/04/12 09:11:22;;;;;;;;;;;;;;;25.65;44.11;95820.25;612816;231;64988;-59
2023/04/12 09:13:50;;;;;;;;;;;;;;;25.66;45.85;95823.72;612557;231;64801;-58
2023/04/12 09:16:19;;;;;;;;;;;;;;;25.65;41.38;95801.42;613713;231;66961;-58
2023/04/12 09:18:50;;;;;;;;;;;;;;;25.66;40.37;95797.59;613622;231;62932;-59
2023/04/12 09:21:18;;;;;;;;;;;;;;;25.66;43.96;95802.20;613644;231;67661;-59
2023/04/12 09:23:47;;;;;;;;;;;;;;;25.66;40.82;95824.50;613683;231;67044;-59
2023/04/12 09:26:16;;;;;;;;;;;;;;;25.66;43.65;95826.41;612933;229;65034;-59
2023/04/12 09:28:44;;;;;;;;;;;;;;;25.66;38.33;95802.20;607370;231;64890;-59
2023/04/12 09:31:14;;;;;;;;;;;;;;;25.67;39.32;95807.27;605966;232;64868;-59
2023/04/12 09:33:41;;;;;;;;;;;;;;;25.68;41.26;95821.50;602885;235;65139;-59
2023/04/12 09:36:12;;;;;;;;;;;;;;;25.67;44.32;95804.58;610412;231;67168;-59
2023/04/12 09:38:40;;;;;;;;;;;;;;;25.66;42.44;95804.89;609889;231;66960;-58
2023/04/12 09:41:29;;;;;;;;;;;;;;;25.66;43.20;95802.20;609281;231;65120;-59
2023/04/12 09:43:56;;;;;;;;;;;;;;;25.65;40.72;95797.95;607490;228;65033;-58
2023/04/12 09:46:23;;;;;;;;;;;;;;;25.67;43.45;95811.83;606896;232;66938;-58
2023/04/12 09:48:52;;;;;;;;;;;;;;;25.66;43.18;95802.20;616390;228;65014;-59
2023/04/12 09:51:27;;;;;;;;;;;;;;;25.67;44.48;95798.38;618469;228;67087;-59
2023/04/12 09:53:58;;;;;;;;;;;;;;;25.65;42.45;95801.42;614981;228;67098;-59
2023/04/12 09:56:27;;;;;;;;;;;;;;;25.66;44.18;95810.27;615362;227;68884;-59
2023/04/12 09:58:56;;;;;;;;;;;;;;;25.66;44.81;95804.89;621079;228;67285;-58
2023/04/12 10:01:24;;;;;;;;;;;;;;;25.66;43.54;95796.81;619786;229;66825;-59
2023/04/12 10:03:52;;;;;;;;;;;;;;;25.65;40.02;95784.49;621301;228;65014;-59
2023/04/12 10:06:22;;;;;;;;;;;;;;;25.66;44.77;95786.84;620552;228;48255;-59
2023/04/12 10:08:50;;;;;;;;;;;;;;;25.67;44.69;95790.31;621685;227;67389;-59
2023/04/12 10:11:18;;;;;;;;;;;;;;;25.68;38.58;95789.99;621444;228;65106;-59
2023/04/12 10:13:47;;;;;;;;;;;;;;;25.69;41.74;95780.80;619171;229;67809;-59
2023/04/12 10:16:16;;;;;;;;;;;;;;;25.68;41.79;95798.06;618675;228;64912;-59
2023/04/12 10:18:43;;;;;;;;;;;;;;;25.72;42.07;95802.78;618516;229;62935;-59
2023/04/12 10:21:11;;;;;;;;;;;;;;;25.73;39.18;95790.89;618714;229;67257;-59
2023/04/12 10:23:38;;;;;;;;;;;;;;;25.73;43.02;95797.08;618648;229;67110;-60
2023/04/12 10:26:06;;;;;;;;;;;;;;;25.73;39.98;95785.50;618951;229;63094;-59
2023/04/12 10:28:35;;;;;;;;;;;;;;;25.72;42.78;95795.48;618070;228;67465;-60
2023/04/12 10:31:04;;;;;;;;;;;;;;;25.74;39.85;95806.72;619158;228;67039;-60
2023/04/12 10:33:32;;;;;;;;;;;;;;;25.77;38.38;95814.13;618193;228;62738;-60
2023/04/12 10:36:09;;;;;;;;;;;;;;;25.80;38.64;95818.06;617252;229;44123;-60
2023/04/12 10:38:46;;;;;;;;;;;;;;;25.82;38.84;95800.47;619233;229;65634;-60
2023/04/12 10:41:15;;;;;;;;;;;;;;;25.83;38.02;95820.89;614172;229;64587;-60
2023/04/12 10:43:49;;;;;;;;;;;;;;;25.84;38.01;95808.25;619395;229;67211;-60
2023/04/12 10:46:37;;;;;;;;;;;;;;;25.83;39.03;95799.37;619307;228;64867;-58
2023/04/12 10:49:08;;;;;;;;;;;;;;;25.84;37.29;95800.17;619173;229;62663;-60
2023/04/12 10:51:35;;;;;;;;;;;;;;;25.85;38.60;95815.98;619307;229;67398;-59
2023/04/12 10:54:12;;;;;;;;;;;;;;;25.86;37.33;95798.73;619137;227;43886;-60
2023/04/12 10:56:47;;;;;;;;;;;;;;;25.85;37.87;95794.45;619099;229;65019;-60
2023/04/12 10:59:16;;;;;;;;;;;;;;;25.84;41.24;95798.27;618426;229;43282;-61
2023/04/12 11:02:03;;;;;;;;;;;;;;;25.85;37.15;95797.14;619764;229;65267;-60
2023/04/12 11:04:30;;;;;;;;;;;;;;;25.88;38.23;95822.61;619356;227;63025;-60
2023/04/12 11:07:10;;;;;;;;;;;;;;;25.87;36.60;95808.36;617248;228;48458;-62
2023/04/12 11:09:43;;;;;;;;;;;;;;;25.87;40.69;95812.97;618152;229;48972;-62
2023/04/12 11:12:13;;;;;;;;;;;;;;;25.85;42.71;95824.05;619540;227;46246;-62
2023/04/12 11:14:47;;;;;;;;;;;;;;;25.85;40.44;95826.74;619129;228;67184;-60
2023/04/12 11:17:17;;;;;;;;;;;;;;;25.84;36.04;95821.70;619315;229;66909;-60
2023/04/12 11:19:46;;;;;;;;;;;;;;;25.86;41.12;95839.10;619296;229;65046;-59
2023/04/12 11:22:14;;;;;;;;;;;;;;;25.83;42.77;95828.97;617810;228;67207;-61
2023/04/12 11:24:50;;;;;;;;;;;;;;;25.82;40.08;95832.77;619662;228;67369;-60
2023/04/12 11:27:19;;;;;;;;;;;;;;;25.82;40.02;95835.45;619066;229;65139;-61
2023/04/12 11:29:47;;;;;;;;;;;;;;;25.82;42.59;95826.59;618696;228;64860;-62
2023/04/12 11:32:15;;;;;;;;;;;;;;;25.83;41.07;95817.39;618664;229;65144;-60
2023/04/12 11:34:44;;;;;;;;;;;;;;;25.84;38.18;95819.02;618616;227;65005;-61
2023/04/12 11:37:12;;;;;;;;;;;;;;;25.85;41.36;95825.96;618292;228;67201;-62
2023/04/12 11:39:41;;;;;;;;;;;;;;;25.84;42.58;95841.33;611856;230;64745;-61
2023/04/12 11:42:14;;;;;;;;;;;;;;;25.83;41.49;95822.78;618788;229;62889;-61
2023/04/12 11:44:43;;;;;;;;;;;;;;;25.83;41.27;95817.39;619416;228;66784;-61
2023/04/12 11:47:15;;;;;;;;;;;;;;;25.87;36.64;95821.04;619300;228;66771;-61
2023/04/12 11:49:47;;;;;;;;;;;;;;;25.88;42.26;95825.30;618739;227;63006;-59
2023/04/12 11:52:15;;;;;;;;;;;;;;;25.86;41.98;95814.88;618548;229;67237;-59
2023/04/12 11:54:46;;;;;;;;;;;;;;;25.85;41.52;95815.98;618537;227;66783;-58
2023/04/12 11:57:15;;;;;;;;;;;;;;;25.87;41.42;95821.04;619634;228;64989;-59
2023/04/12 11:59:44;;;;;;;;;;;;;;;25.85;41.97;95815.98;619249;228;66971;-59
2023/04/12 12:02:13;;;;;;;;;;;;;;;25.88;35.72;95817.22;619240;229;66859;-59
2023/04/12 12:04:44;;;;;;;;;;;;;;;25.90;35.61;95826.54;619076;227;42344;-59
2023/04/12 12:07:13;;;;;;;;;;;;;;;25.93;38.75;95825.09;618618;229;67204;-59
2023/04/12 12:09:43;;;;;;;;;;;;;;;25.94;40.49;95844.72;618814;228;52837;-59
2023/04/12 12:12:11;;;;;;;;;;;;;;;25.90;43.21;95836.53;619606;228;62891;-59
2023/04/12 12:14:38;;;;;;;;;;;;;;;25.89;42.72;95827.67;619126;228;65084;-59
2023/04/12 12:17:10;;;;;;;;;;;;;;;25.88;43.37;95826.08;618178;228;64857;-59
2023/04/12 12:19:39;;;;;;;;;;;;;;;25.88;42.13;95801.85;619565;229;65147;-59
2023/04/12 12:22:09;;;;;;;;;;;;;;;25.87;42.91;95829.90;619118;228;67298;-59
2023/04/12 12:24:36;;;;;;;;;;;;;;;25.86;43.55;95828.33;618734;228;66800;-59
2023/04/12 12:27:04;;;;;;;;;;;;;;;25.84;41.87;95844.02;618601;229;63582;-59
2023/04/12 12:29:35;;;;;;;;;;;;;;;25.85;41.63;95825.96;617773;229;67102;-59
2023/04/12 12:32:05;;;;;;;;;;;;;;;25.84;42.95;95837.86;619510;228;64804;-59
2023/04/12 12:34:35;;;;;;;;;;;;;;;25.84;43.22;95833.25;616969;229;63075;-58
2023/04/12 12:37:05;;;;;;;;;;;;;;;25.84;41.09;95810.94;619156;229;68425;-58
2023/04/12 12:39:32;;;;;;;;;;;;;;;25.84;42.73;95841.33;619546;227;67314;-59
2023/04/12 12:42:01;;;;;;;;;;;;;;;25.83;40.61;95820.89;619605;229;62951;-59
2023/04/12 12:44:29;;;;;;;;;;;;;;;25.84;42.76;95825.18;619284;228;67205;-59
2023/04/12 12:46:58;;;;;;;;;;;;;;;25.84;41.03;95827.88;619111;226;67060;-59
2023/04/12 12:49:26;;;;;;;;;;;;;;;25.84;43.02;95825.18;609824;231;64282;-59
2023/04/12 12:51:53;;;;;;;;;;;;;;;25.83;42.00;95834.35;604613;229;66708;-59
2023/04/12 12:54:21;;;;;;;;;;;;;;;25.83;42.62;95828.97;612524;229;67132;-59
2023/04/12 12:56:48;;;;;;;;;;;;;;;25.84;42.52;95824.40;612762;228;65584;-59
2023/04/12 12:59:16;;;;;;;;;;;;;;;25.84;43.65;95835.16;614836;229;66928;-59